createdAt,value
2018-12-28T00:00:20.034Z,2.80
2018-12-28T00:02:49.363Z,2.72
2018-12-28T00:05:18.790Z,2.52
2018-12-28T00:07:48.109Z,2.83
2018-12-28T00:10:17.435Z,2.72
2018-12-28T00:12:46.768Z,3.00
2018-12-28T00:15:16.158Z,2.58
2018-12-28T00:17:45.514Z,3.77
2018-12-28T00:20:14.850Z,3.25
2018-12-28T00:22:44.339Z,2.90
2018-12-28T00:25:13.678Z,3.00
2018-12-28T00:27:43.003Z,3.25
2018-12-28T00:30:12.339Z,3.02
2018-12-28T00:32:41.670Z,3.10
2018-12-28T00:35:11.009Z,3.00
2018-12-28T00:37:40.334Z,2.65
2018-12-28T00:40:09.731Z,3.17
2018-12-28T00:42:39.059Z,3.22
2018-12-28T00:45:08.391Z,2.50
2018-12-28T00:47:37.722Z,2.92
2018-12-28T00:50:07.047Z,2.30
2018-12-28T00:52:36.515Z,1.90
2018-12-28T00:55:06.062Z,2.33
2018-12-28T00:57:35.379Z,2.00
2018-12-28T01:00:05.029Z,1.75
2018-12-28T01:02:34.431Z,2.10
2018-12-28T01:05:03.858Z,1.90
2018-12-28T01:07:33.207Z,2.10
2018-12-28T01:10:02.614Z,2.35
2018-12-28T01:12:32.010Z,1.75
2018-12-28T01:15:01.434Z,2.45
2018-12-28T01:17:30.766Z,2.35
2018-12-28T01:20:19.151Z,2.27
2018-12-28T01:22:48.463Z,2.22
2018-12-28T01:25:17.792Z,2.35
2018-12-28T01:27:47.122Z,2.60
2018-12-28T01:30:16.523Z,2.60
2018-12-28T01:32:45.855Z,2.05
2018-12-28T01:35:15.192Z,2.83
2018-12-28T01:37:44.521Z,2.45
2018-12-28T01:40:13.868Z,2.87
2018-12-28T01:42:43.191Z,2.17
2018-12-28T01:45:12.675Z,2.50
2018-12-28T01:47:42.047Z,2.27
2018-12-28T01:50:11.374Z,1.80
2018-12-28T01:52:40.742Z,1.60
2018-12-28T01:55:10.146Z,1.62
2018-12-28T01:57:39.475Z,1.40
2018-12-28T02:00:09.737Z,2.20
2018-12-28T02:02:39.070Z,2.75
2018-12-28T02:05:08.408Z,2.20
2018-12-28T02:07:37.744Z,1.75
2018-12-28T02:10:07.151Z,2.27
2018-12-28T02:12:36.475Z,2.00
2018-12-28T02:15:05.932Z,1.77
2018-12-28T02:17:35.279Z,1.82
2018-12-28T02:20:23.694Z,2.62
2018-12-28T02:22:53.129Z,1.80
2018-12-28T02:25:41.574Z,2.17
2018-12-28T02:34:20.952Z,1.40
2018-12-28T02:37:09.407Z,1.90
2018-12-28T02:42:44.062Z,1.80
2018-12-28T02:45:13.531Z,1.47
2018-12-28T02:48:01.968Z,1.60
2018-12-28T02:59:46.823Z,1.40
2018-12-28T03:08:26.054Z,1.42
2018-12-28T03:11:14.427Z,1.80
2018-12-28T03:14:02.922Z,1.40
2018-12-28T03:22:42.863Z,2.05
2018-12-28T03:25:31.266Z,1.50
2018-12-28T03:52:41.963Z,1.12
2018-12-28T03:55:11.357Z,1.92
2018-12-28T03:57:59.738Z,1.32
2018-12-28T04:19:00.808Z,1.00
2018-12-28T04:21:30.223Z,1.30
2018-12-28T04:23:59.574Z,1.40
2018-12-28T04:26:47.951Z,1.07
2018-12-28T04:29:36.323Z,1.12
2018-12-28T04:47:46.509Z,0.75
2018-12-28T05:03:08.843Z,0.80
2018-12-28T05:06:02.463Z,1.45
2018-12-28T05:18:44.440Z,0.60
2018-12-28T05:21:56.727Z,0.72
2018-12-28T05:24:50.006Z,0.98
2018-12-28T05:30:51.979Z,1.10
2018-12-28T05:33:40.361Z,0.60
2018-12-28T05:42:34.602Z,0.93
2018-12-28T05:45:03.950Z,0.70
2018-12-28T05:47:33.282Z,0.80
2018-12-28T05:50:21.667Z,1.10
2018-12-28T05:52:51.077Z,0.60
2018-12-28T05:55:20.497Z,0.95
2018-12-28T05:58:08.934Z,0.75
2018-12-28T06:00:57.606Z,0.75
2018-12-28T06:03:26.939Z,0.80
2018-12-28T06:05:56.282Z,0.60
2018-12-28T06:08:25.642Z,0.78
2018-12-28T06:10:54.968Z,1.00
2018-12-28T06:13:24.365Z,2.30
2018-12-28T06:15:53.700Z,1.27
2018-12-28T06:18:23.019Z,0.95
2018-12-28T06:20:52.350Z,0.60
2018-12-28T06:23:21.671Z,0.72
2018-12-28T06:25:51.073Z,0.98
2018-12-28T06:28:39.447Z,1.10
2018-12-28T06:31:08.824Z,1.15
2018-12-28T06:33:38.219Z,0.95
2018-12-28T06:36:07.578Z,1.02
2018-12-28T06:38:36.923Z,0.70
2018-12-28T06:41:06.251Z,1.50
2018-12-28T06:43:36.727Z,0.80
2018-12-28T06:46:06.082Z,1.02
2018-12-28T06:48:35.406Z,1.02
2018-12-28T06:51:23.779Z,0.65
2018-12-28T06:54:26.550Z,0.98
2018-12-28T06:57:44.550Z,0.60
2018-12-28T07:00:41.371Z,1.05
2018-12-28T07:03:41.130Z,0.68
2018-12-28T07:06:42.355Z,1.10
2018-12-28T07:10:03.427Z,0.60
2018-12-28T07:13:22.890Z,0.80
2018-12-28T07:17:03.240Z,0.80
2018-12-28T07:20:11.695Z,0.72
2018-12-28T07:23:08.663Z,1.20
2018-12-28T07:26:14.526Z,0.65
2018-12-28T07:29:21.870Z,0.57
2018-12-28T07:32:35.531Z,1.02
2018-12-28T07:35:59.158Z,1.10
2018-12-28T07:39:00.177Z,1.00
2018-12-28T07:42:13.266Z,0.53
2018-12-28T07:45:13.168Z,0.93
2018-12-28T07:48:03.935Z,0.90
2018-12-28T07:51:19.399Z,0.72
2018-12-28T07:54:38.702Z,0.85
2018-12-28T07:57:29.811Z,1.12
2018-12-28T08:00:36.006Z,0.88
2018-12-28T08:03:41.923Z,1.07
2018-12-28T08:07:07.038Z,1.20
2018-12-28T08:10:37.354Z,0.95
2018-12-28T08:13:40.309Z,1.10
2018-12-28T08:16:30.326Z,1.02
2018-12-28T08:19:34.602Z,1.20
2018-12-28T08:22:29.563Z,0.90
2018-12-28T08:25:38.156Z,0.95
2018-12-28T08:28:37.781Z,1.07
2018-12-28T08:32:05.809Z,2.50
2018-12-28T08:34:59.567Z,1.85
2018-12-28T08:38:24.611Z,1.10
2018-12-28T08:41:31.846Z,0.60
2018-12-28T08:44:27.132Z,1.40
2018-12-28T08:47:38.822Z,0.70
2018-12-28T08:50:38.814Z,0.60
2018-12-28T08:53:49.168Z,1.00
2018-12-28T08:56:38.323Z,0.93
2018-12-28T09:03:22.712Z,0.65
2018-12-28T09:06:17.339Z,0.80
2018-12-28T09:09:23.035Z,1.00
2018-12-28T09:12:57.342Z,1.37
2018-12-28T09:16:09.019Z,1.00
2018-12-28T09:19:05.359Z,1.10
2018-12-28T09:21:53.566Z,0.78
2018-12-28T09:25:01.075Z,0.98
2018-12-28T09:28:01.618Z,1.00
2018-12-28T09:31:06.004Z,1.15
2018-12-28T09:34:07.175Z,1.22
2018-12-28T09:37:20.499Z,0.93
2018-12-28T09:40:34.026Z,1.07
2018-12-28T09:44:05.126Z,0.70
2018-12-28T09:46:54.603Z,1.02
2018-12-28T09:50:11.758Z,1.02
2018-12-28T09:53:00.681Z,0.90
2018-12-28T09:56:13.762Z,0.72
2018-12-28T09:59:19.146Z,0.90
2018-12-28T10:02:22.955Z,1.05
2018-12-28T10:05:25.903Z,1.10
2018-12-28T10:08:37.790Z,1.02
2018-12-28T10:11:49.841Z,1.35
2018-12-28T10:14:58.937Z,1.30
2018-12-28T10:17:28.375Z,1.10
2018-12-28T10:19:57.711Z,1.62
2018-12-28T10:22:27.043Z,1.12
2018-12-28T10:24:56.362Z,1.17
2018-12-28T10:27:25.706Z,0.70
2018-12-28T10:29:55.094Z,1.20
2018-12-28T10:32:24.422Z,1.10
2018-12-28T10:34:53.783Z,1.60
2018-12-28T10:37:23.126Z,1.25
2018-12-28T10:39:52.481Z,1.15
2018-12-28T10:42:21.893Z,1.25
2018-12-28T10:44:51.297Z,1.10
2018-12-28T10:47:20.694Z,0.90
2018-12-28T10:49:50.055Z,1.50
2018-12-28T10:52:19.414Z,2.27
2018-12-28T10:54:49.430Z,1.27
2018-12-28T10:57:18.751Z,1.72
2018-12-28T10:59:48.099Z,1.62
2018-12-28T11:02:17.438Z,1.20
2018-12-28T11:04:46.808Z,1.55
2018-12-28T11:07:16.141Z,0.90
2018-12-28T11:09:45.476Z,1.07
2018-12-28T11:12:14.798Z,0.95
2018-12-28T11:14:44.167Z,0.80
2018-12-28T11:17:13.510Z,1.07
2018-12-28T11:19:42.848Z,0.90
2018-12-28T11:22:12.254Z,1.15
2018-12-28T11:24:41.704Z,1.15
2018-12-28T11:27:11.106Z,0.93
2018-12-28T11:29:40.422Z,1.35
2018-12-28T11:32:09.774Z,0.95
2018-12-28T11:34:39.096Z,1.35
2018-12-28T11:37:08.544Z,1.60
2018-12-28T11:39:37.870Z,1.17
2018-12-28T11:42:07.228Z,1.52
2018-12-28T11:44:36.582Z,1.80
2018-12-28T11:47:05.910Z,1.90
2018-12-28T11:49:36.822Z,2.02
2018-12-28T11:52:06.163Z,1.62
2018-12-28T11:54:35.542Z,1.70
2018-12-28T11:57:04.863Z,1.95
2018-12-28T11:59:34.210Z,1.25
2018-12-28T12:02:03.535Z,1.45
2018-12-28T12:04:51.914Z,1.15
2018-12-28T12:10:26.255Z,1.30
2018-12-28T12:13:14.801Z,1.80
2018-12-28T12:21:54.780Z,1.10
2018-12-28T12:24:24.106Z,1.07
2018-12-28T12:26:53.515Z,1.50
2018-12-28T12:29:41.307Z,1.30
2018-12-28T12:41:26.498Z,1.02
2018-12-28T12:44:14.909Z,0.82
2018-12-28T12:52:54.277Z,1.98
2018-12-28T12:55:23.669Z,1.32
2018-12-28T12:57:52.986Z,1.07
2018-12-28T13:00:22.351Z,1.30
2018-12-28T13:02:52.134Z,1.50
2018-12-28T13:05:21.479Z,1.25
2018-12-28T13:07:50.813Z,1.80
2018-12-28T13:10:20.147Z,1.20
2018-12-28T13:12:49.498Z,1.25
2018-12-28T13:15:18.890Z,1.42
2018-12-28T13:17:48.226Z,1.07
2018-12-28T13:20:17.566Z,1.15
2018-12-28T13:22:46.916Z,1.07
2018-12-28T13:25:16.324Z,0.98
2018-12-28T13:27:45.717Z,1.30
2018-12-28T13:30:15.187Z,1.70
2018-12-28T13:32:44.590Z,1.82
2018-12-28T13:35:13.987Z,1.52
2018-12-28T13:37:43.315Z,1.07
2018-12-28T13:40:12.646Z,1.25
2018-12-28T13:45:10.483Z,1.55
2018-12-28T13:47:39.822Z,1.50
2018-12-28T13:50:09.150Z,1.42
2018-12-28T13:52:38.532Z,1.50
2018-12-28T13:55:07.945Z,1.35
2018-12-28T13:57:37.282Z,1.50
2018-12-28T14:00:07.622Z,1.15
2018-12-28T14:02:36.960Z,1.12
2018-12-28T14:05:06.478Z,1.30
2018-12-28T14:10:41.215Z,1.35
2018-12-28T14:13:10.550Z,1.45
2018-12-28T14:15:59.026Z,1.10
2018-12-28T14:18:28.491Z,1.12
2018-12-28T14:20:57.823Z,1.65
2018-12-28T14:23:27.157Z,2.08
2018-12-28T14:25:56.483Z,2.15
2018-12-28T14:28:25.867Z,1.50
2018-12-28T14:30:55.215Z,1.40
2018-12-28T14:33:24.558Z,1.42
2018-12-28T14:35:53.966Z,1.47
2018-12-28T14:38:23.392Z,1.95
2018-12-28T14:40:52.822Z,2.30
2018-12-28T14:43:22.180Z,2.22
2018-12-28T14:45:51.507Z,1.80
2018-12-28T14:48:21.050Z,1.75
2018-12-28T14:50:50.383Z,1.40
2018-12-28T14:53:38.758Z,1.87
2018-12-28T14:56:08.199Z,2.00
2018-12-28T14:58:56.642Z,1.72
2018-12-28T15:01:26.135Z,2.22
2018-12-28T15:03:55.454Z,1.92
2018-12-28T15:06:24.899Z,2.50
2018-12-28T15:09:13.346Z,2.00
2018-12-28T15:11:42.710Z,2.10
2018-12-28T15:14:34.881Z,3.22
2018-12-28T15:20:09.343Z,2.60
2018-12-28T15:22:57.715Z,2.02
2018-12-28T15:25:27.057Z,2.22
2018-12-28T15:28:15.566Z,2.00
2018-12-28T16:07:48.208Z,2.50
2018-12-28T16:10:17.533Z,2.05
2018-12-28T16:12:46.875Z,2.10
2018-12-28T16:15:16.217Z,2.35
2018-12-28T16:17:45.563Z,2.00
2018-12-28T16:20:14.895Z,2.33
2018-12-28T16:22:44.220Z,1.77
2018-12-28T16:25:13.586Z,2.12
2018-12-28T16:27:42.921Z,2.27
2018-12-28T16:30:12.330Z,2.17
2018-12-28T16:32:41.680Z,2.00
2018-12-28T16:35:11.107Z,2.33
2018-12-28T16:37:40.499Z,2.35
2018-12-28T16:40:09.932Z,1.87
2018-12-28T16:42:39.614Z,2.33
2018-12-28T16:45:09.077Z,2.45
2018-12-28T16:47:38.580Z,2.15
2018-12-28T16:50:08.327Z,2.85
2018-12-28T16:52:38.507Z,2.30
2018-12-28T16:55:08.463Z,2.08
2018-12-28T16:57:39.024Z,2.35
2018-12-28T17:00:08.513Z,2.55
2018-12-28T17:02:37.943Z,2.05
2018-12-28T17:05:07.303Z,3.37
2018-12-28T17:07:36.743Z,2.50
2018-12-28T17:10:07.339Z,3.60
2018-12-28T17:12:56.208Z,3.27
2018-12-28T17:24:55.191Z,2.12
2018-12-28T17:27:24.555Z,2.55
2018-12-28T17:29:53.996Z,2.67
2018-12-28T17:32:23.314Z,3.37
2018-12-28T17:34:52.660Z,2.40
2018-12-28T17:37:22.095Z,2.60
2018-12-28T17:39:51.472Z,2.45
2018-12-28T17:42:20.866Z,2.67
2018-12-28T17:45:07.934Z,2.95
2018-12-28T17:47:37.346Z,2.95
2018-12-28T17:50:06.948Z,3.45
2018-12-28T17:52:36.366Z,2.80
2018-12-28T17:55:05.702Z,2.90
2018-12-28T17:57:35.039Z,2.58
2018-12-28T18:00:04.803Z,2.85
2018-12-28T18:02:34.139Z,2.75
2018-12-28T18:05:03.560Z,2.58
2018-12-28T18:07:32.970Z,3.83
2018-12-28T18:10:02.434Z,3.17
2018-12-28T18:12:31.763Z,2.20
2018-12-28T18:15:01.114Z,2.95
2018-12-28T18:17:30.477Z,2.92
2018-12-28T18:19:59.870Z,3.75
2018-12-28T18:22:29.215Z,3.60
2018-12-28T18:24:58.616Z,4.58
2018-12-28T18:27:27.947Z,4.08
2018-12-28T18:29:57.270Z,4.30
2018-12-28T18:32:26.607Z,5.08
2018-12-28T18:34:56.060Z,4.25
2018-12-28T18:37:25.386Z,4.28
2018-12-28T18:39:54.720Z,3.77
2018-12-28T18:42:24.052Z,3.92
2018-12-28T18:44:53.447Z,3.72
2018-12-28T18:47:22.783Z,3.83
2018-12-28T18:49:52.129Z,3.05
2018-12-28T18:52:21.486Z,3.70
2018-12-28T18:54:50.831Z,2.50
2018-12-28T18:57:20.255Z,2.47
2018-12-28T18:59:49.666Z,3.10
2018-12-28T19:02:19.027Z,2.75
2018-12-28T19:04:48.490Z,4.17
2018-12-28T19:16:11.978Z,2.70
2018-12-28T19:18:41.380Z,3.12
2018-12-28T19:21:10.730Z,3.30
2018-12-28T19:23:40.071Z,3.35
2018-12-28T19:26:28.455Z,3.15
2018-12-28T19:28:57.824Z,3.20
2018-12-28T19:31:46.245Z,3.95
2018-12-28T19:37:20.606Z,3.30
2018-12-28T19:39:50.313Z,3.22
2018-12-28T19:42:38.694Z,3.87
2018-12-28T19:48:12.922Z,3.45
2018-12-28T19:51:01.330Z,3.10
2018-12-28T19:53:30.723Z,3.35
2018-12-28T19:56:19.099Z,3.50
2018-12-28T19:58:48.546Z,3.80
2018-12-28T20:01:17.903Z,3.20
2018-12-28T20:03:47.233Z,3.17
2018-12-28T20:06:16.591Z,9.38
2018-12-28T20:08:45.936Z,5.70
2018-12-28T20:11:15.363Z,7.45
2018-12-28T20:13:44.714Z,6.78
2018-12-28T20:16:14.104Z,7.25
2018-12-28T20:18:43.442Z,6.75
2018-12-28T20:21:12.791Z,6.83
2018-12-28T20:24:01.223Z,5.78
2018-12-28T20:26:30.591Z,4.83
2018-12-28T20:29:19.043Z,3.98
2018-12-28T20:35:22.171Z,2.25
2018-12-28T20:41:10.767Z,2.87
2018-12-28T20:44:03.611Z,3.77
2018-12-28T20:46:30.335Z,2.33
2018-12-28T20:49:18.844Z,2.30
2018-12-28T20:54:53.055Z,3.05
2018-12-28T20:57:41.590Z,2.15
2018-12-28T21:12:45.148Z,2.45
2018-12-28T21:15:14.567Z,2.77
2018-12-28T21:18:02.942Z,2.70
2018-12-28T21:20:32.270Z,2.10
2018-12-28T21:23:20.690Z,2.65
2018-12-28T21:26:09.080Z,2.55
2018-12-28T21:31:43.318Z,2.17
2018-12-28T21:34:31.831Z,1.55
2018-12-28T21:37:20.207Z,2.22
2018-12-28T22:10:42.252Z,2.00
2018-12-28T22:13:11.578Z,1.92
2018-12-28T22:16:00.031Z,2.45
2018-12-28T22:18:48.406Z,1.60
2018-12-28T23:32:06.536Z,2.10
2018-12-28T23:34:54.959Z,2.10
2018-12-28T23:59:00.407Z,2.58
